createdAt,value
2022-12-18T00:01:39.075Z,19.58
2022-12-18T00:04:19.827Z,19.73
2022-12-18T00:06:47.030Z,20.52
2022-12-18T00:09:15.919Z,21.48
2022-12-18T00:11:43.316Z,24.75
2022-12-18T00:14:13.312Z,23.55
2022-12-18T00:16:43.691Z,24.45
2022-12-18T00:19:14.737Z,25.17
2022-12-18T00:21:43.156Z,24.85
2022-12-18T00:24:12.000Z,24.75
2022-12-18T00:26:40.719Z,24.65
2022-12-18T00:29:14.852Z,24.27
2022-12-18T00:31:43.925Z,23.98
2022-12-18T00:34:14.445Z,23.83
2022-12-18T00:36:42.158Z,23.27
2022-12-18T00:39:11.383Z,22.83
2022-12-18T00:41:57.019Z,22.15
2022-12-18T00:44:24.090Z,22.10
2022-12-18T00:46:51.047Z,23.33
2022-12-18T00:49:20.856Z,22.83
2022-12-18T00:51:48.968Z,21.23
2022-12-18T00:54:17.632Z,21.92
2022-12-18T00:56:49.289Z,20.60
2022-12-18T00:59:18.844Z,21.50
2022-12-18T01:01:47.224Z,22.40
2022-12-18T01:04:15.107Z,21.50
2022-12-18T01:06:42.242Z,21.67
2022-12-18T01:09:09.211Z,22.20
2022-12-18T01:11:36.233Z,20.40
2022-12-18T01:14:03.519Z,22.42
2022-12-18T01:16:30.556Z,21.98
2022-12-18T01:18:57.629Z,22.98
2022-12-18T01:21:25.349Z,22.08
2022-12-18T01:23:57.897Z,20.80
2022-12-18T01:26:26.983Z,20.88
2022-12-18T01:28:57.267Z,20.45
2022-12-18T01:31:28.988Z,19.27
2022-12-18T01:33:57.214Z,19.37
2022-12-18T01:36:33.670Z,19.27
2022-12-18T01:39:04.528Z,18.35
2022-12-18T01:41:52.627Z,18.30
2022-12-18T01:45:12.811Z,17.33
2022-12-18T01:47:48.455Z,18.42
2022-12-18T01:50:25.496Z,18.27
2022-12-18T01:53:06.399Z,19.17
2022-12-18T01:55:43.263Z,20.20
2022-12-18T01:58:10.578Z,21.08
2022-12-18T02:00:37.549Z,20.35
2022-12-18T02:03:07.629Z,20.25
2022-12-18T02:06:09.179Z,19.90
2022-12-18T02:20:20.867Z,23.08
2022-12-18T02:23:03.073Z,18.90
2022-12-18T02:26:18.962Z,20.17
2022-12-18T02:29:14.320Z,18.30
2022-12-18T02:31:52.501Z,18.15
2022-12-18T02:34:24.961Z,19.17
2022-12-18T02:36:55.285Z,18.58
2022-12-18T02:39:26.220Z,18.77
2022-12-18T02:41:53.634Z,18.77
2022-12-18T02:44:20.991Z,19.40
2022-12-18T02:46:52.642Z,19.35
2022-12-18T02:49:44.072Z,20.33
2022-12-18T02:52:32.384Z,18.80
2022-12-18T02:55:48.867Z,19.48
2022-12-18T02:58:20.502Z,18.30
2022-12-18T03:00:54.457Z,20.00
2022-12-18T03:03:39.966Z,19.08
2022-12-18T03:06:36.568Z,20.45
2022-12-18T03:09:20.370Z,19.73
2022-12-18T03:12:16.001Z,19.10
2022-12-18T03:14:46.776Z,19.65
2022-12-18T03:17:21.414Z,18.52
2022-12-18T03:19:52.599Z,19.80
2022-12-18T03:22:21.408Z,20.75
2022-12-18T03:24:50.245Z,20.30
2022-12-18T03:27:23.394Z,19.40
2022-12-18T03:30:08.793Z,20.08
2022-12-18T03:33:01.608Z,20.30
2022-12-18T03:35:35.839Z,19.58
2022-12-18T03:38:02.976Z,19.45
2022-12-18T03:40:48.347Z,19.00
2022-12-18T03:43:33.977Z,19.63
2022-12-18T03:46:16.125Z,19.42
2022-12-18T03:48:52.825Z,19.95
2022-12-18T03:51:41.843Z,20.02
2022-12-18T03:54:12.064Z,19.17
2022-12-18T03:56:48.050Z,18.80
2022-12-18T03:59:18.138Z,19.17
2022-12-18T04:01:52.948Z,19.75
2022-12-18T04:04:22.407Z,20.75
2022-12-18T04:06:51.228Z,19.00
2022-12-18T04:09:19.372Z,20.90
2022-12-18T04:11:48.484Z,20.33
2022-12-18T04:14:17.982Z,20.48
2022-12-18T04:16:45.613Z,20.08
2022-12-18T04:19:12.709Z,19.50
2022-12-18T04:21:39.869Z,19.52
2022-12-18T04:24:07.231Z,20.00
2022-12-18T04:26:34.128Z,19.30
2022-12-18T04:29:01.333Z,19.63
2022-12-18T04:31:28.635Z,19.27
2022-12-18T04:33:55.584Z,18.50
2022-12-18T04:36:22.583Z,19.38
2022-12-18T04:38:49.603Z,19.17
2022-12-18T04:41:16.587Z,19.75
2022-12-18T04:43:43.532Z,19.50
2022-12-18T04:46:11.107Z,20.17
2022-12-18T04:48:38.662Z,20.25
2022-12-18T04:51:07.575Z,19.85
2022-12-18T04:53:35.134Z,19.75
2022-12-18T04:56:11.009Z,19.08
2022-12-18T04:58:41.017Z,18.50
2022-12-18T05:01:08.853Z,19.08
2022-12-18T05:03:37.212Z,18.80
2022-12-18T05:06:06.070Z,17.90
2022-12-18T05:08:34.265Z,18.90
2022-12-18T05:11:11.994Z,17.98
2022-12-18T05:13:39.761Z,18.27
2022-12-18T05:16:07.815Z,17.10
2022-12-18T05:18:35.912Z,16.95
2022-12-18T05:21:03.298Z,18.05
2022-12-18T05:23:30.569Z,17.50
2022-12-18T05:26:04.655Z,17.17
2022-12-18T05:28:34.487Z,17.30
2022-12-18T05:31:04.283Z,16.63
2022-12-18T05:33:35.406Z,18.00
2022-12-18T05:36:08.217Z,17.13
2022-12-18T05:38:38.299Z,18.20
2022-12-18T05:41:06.331Z,16.65
2022-12-18T05:43:36.001Z,18.23
2022-12-18T05:46:09.221Z,18.15
2022-12-18T05:48:36.467Z,18.35
2022-12-18T05:51:13.497Z,18.05
2022-12-18T05:53:40.704Z,17.52
2022-12-18T05:56:18.052Z,18.27
2022-12-18T05:58:45.738Z,19.42
2022-12-18T06:01:20.379Z,19.45
2022-12-18T06:03:47.979Z,18.98
2022-12-18T06:06:34.092Z,18.17
2022-12-18T06:09:02.330Z,18.70
2022-12-18T06:11:29.203Z,19.40
2022-12-18T06:13:59.072Z,19.58
2022-12-18T06:16:27.779Z,19.25
2022-12-18T06:19:02.110Z,18.80
2022-12-18T06:21:31.160Z,19.80
2022-12-18T06:23:59.771Z,18.63
2022-12-18T06:26:28.607Z,20.27
2022-12-18T06:28:55.946Z,19.88
2022-12-18T06:31:22.952Z,19.92
2022-12-18T06:33:50.034Z,19.85
2022-12-18T06:36:17.708Z,19.92
2022-12-18T06:38:45.191Z,21.08
2022-12-18T06:41:15.806Z,22.98
2022-12-18T06:43:44.042Z,21.80
2022-12-18T06:46:12.055Z,22.75
2022-12-18T06:48:39.223Z,20.27
2022-12-18T06:51:06.310Z,19.92
2022-12-18T06:53:34.139Z,19.17
2022-12-18T06:56:09.191Z,18.88
2022-12-18T06:58:36.980Z,18.45
2022-12-18T07:01:07.880Z,19.73
2022-12-18T07:03:35.035Z,20.13
2022-12-18T07:06:02.269Z,19.65
2022-12-18T07:08:31.261Z,19.85
2022-12-18T07:10:58.703Z,21.48
2022-12-18T07:13:25.903Z,20.52
2022-12-18T07:15:52.915Z,21.00
2022-12-18T07:18:19.922Z,19.73
2022-12-18T07:20:46.907Z,21.40
2022-12-18T07:23:15.091Z,20.52
2022-12-18T07:25:42.248Z,19.98
2022-12-18T07:28:14.141Z,18.30
2022-12-18T07:30:44.033Z,18.55
2022-12-18T07:33:11.037Z,19.60
2022-12-18T07:35:37.949Z,20.33
2022-12-18T07:38:04.858Z,19.92
2022-12-18T07:40:31.788Z,22.17
2022-12-18T07:42:58.774Z,20.30
2022-12-18T07:45:25.754Z,21.38
2022-12-18T07:47:52.713Z,21.48
2022-12-18T07:50:19.812Z,22.73
2022-12-18T07:52:47.536Z,24.05
2022-12-18T07:55:14.535Z,23.00
2022-12-18T07:57:50.556Z,24.25
2022-12-18T08:00:19.155Z,23.95
2022-12-18T08:02:46.241Z,25.23
2022-12-18T08:05:14.237Z,28.17
2022-12-18T08:07:41.289Z,27.65
2022-12-18T08:10:09.086Z,27.73
2022-12-18T08:12:36.015Z,27.88
2022-12-18T08:15:03.056Z,25.58
2022-12-18T08:17:30.547Z,23.27
2022-12-18T08:19:57.469Z,23.05
2022-12-18T08:22:24.457Z,21.98
2022-12-18T08:24:51.464Z,22.92
2022-12-18T08:27:29.504Z,23.05
2022-12-18T08:29:57.937Z,23.15
2022-12-18T08:32:27.406Z,22.15
2022-12-18T08:34:54.998Z,19.67
2022-12-18T08:37:22.044Z,19.27
2022-12-18T08:39:49.161Z,20.55
2022-12-18T08:42:36.371Z,20.02
2022-12-18T08:45:04.843Z,19.48
2022-12-18T08:47:31.858Z,19.77
2022-12-18T09:01:44.440Z,20.23
2022-12-18T09:04:11.713Z,18.70
2022-12-18T09:06:39.017Z,19.48
2022-12-18T09:09:07.044Z,19.38
2022-12-18T09:11:34.533Z,17.70
2022-12-18T09:14:02.829Z,18.85
2022-12-18T09:16:32.998Z,19.30
2022-12-18T09:19:01.216Z,18.88
2022-12-18T09:21:37.029Z,17.15
2022-12-18T09:24:07.308Z,18.13
2022-12-18T09:26:36.219Z,17.52
2022-12-18T09:29:04.689Z,18.33
2022-12-18T09:31:32.171Z,17.45
2022-12-18T09:33:59.134Z,17.90
2022-12-18T09:36:26.281Z,17.33
2022-12-18T09:38:54.194Z,17.25
2022-12-18T09:41:39.042Z,17.85
2022-12-18T09:44:30.838Z,18.00
2022-12-18T09:47:17.047Z,17.58
2022-12-18T09:49:53.652Z,19.92
2022-12-18T09:52:41.295Z,20.25
2022-12-18T09:55:37.587Z,19.40
2022-12-18T09:58:32.724Z,20.30
2022-12-18T10:01:00.119Z,20.55
2022-12-18T10:03:27.639Z,19.23
2022-12-18T10:06:43.814Z,20.05
2022-12-18T10:09:31.140Z,19.23
2022-12-18T10:12:40.547Z,19.20
2022-12-18T10:15:20.670Z,18.98
2022-12-18T10:18:07.071Z,17.63
2022-12-18T10:20:55.651Z,17.10
2022-12-18T10:23:58.121Z,16.70
2022-12-18T10:26:26.532Z,13.37
2022-12-18T10:29:02.191Z,17.10
2022-12-18T10:31:33.350Z,17.40
2022-12-18T10:34:00.603Z,16.92
2022-12-18T10:36:27.761Z,18.13
2022-12-18T10:38:54.703Z,16.73
2022-12-18T10:41:27.588Z,14.80
2022-12-18T10:44:13.946Z,15.20
2022-12-18T10:46:44.425Z,14.43
2022-12-18T10:49:30.962Z,14.50
2022-12-18T10:52:22.949Z,14.25
2022-12-18T10:55:05.089Z,15.32
2022-12-18T10:57:39.837Z,15.10
2022-12-18T11:00:31.556Z,15.10
2022-12-18T11:02:59.170Z,15.15
2022-12-18T11:05:37.748Z,14.48
2022-12-18T11:08:05.197Z,15.82
2022-12-18T11:10:36.600Z,15.57
2022-12-18T11:13:25.815Z,16.05
2022-12-18T11:15:53.459Z,13.77
2022-12-18T11:18:36.183Z,15.70
2022-12-18T11:21:11.358Z,15.02
2022-12-18T11:23:53.328Z,14.48
2022-12-18T11:26:22.447Z,13.98
2022-12-18T11:29:11.104Z,14.00
2022-12-18T11:31:38.656Z,13.82
2022-12-18T11:34:31.119Z,15.27
2022-12-18T11:37:03.697Z,17.10
2022-12-18T11:39:41.074Z,16.13
2022-12-18T11:42:15.215Z,16.65
2022-12-18T11:45:48.612Z,16.02
2022-12-18T11:48:26.103Z,14.00
2022-12-18T11:50:59.396Z,16.45
2022-12-18T11:53:28.133Z,15.35
2022-12-18T11:56:15.671Z,16.95
2022-12-18T11:59:19.085Z,17.73
2022-12-18T12:04:48.144Z,14.68
2022-12-18T12:07:37.171Z,17.17
2022-12-18T12:10:40.391Z,15.10
2022-12-18T12:13:46.586Z,15.45
2022-12-18T12:16:17.356Z,17.33
2022-12-18T12:19:07.973Z,17.20
2022-12-18T12:21:41.824Z,16.65
2022-12-18T12:24:55.042Z,21.15
2022-12-18T12:27:27.945Z,21.00
2022-12-18T12:30:22.147Z,16.90
2022-12-18T12:33:36.298Z,20.75
2022-12-18T12:36:09.131Z,19.98
2022-12-18T12:41:45.188Z,16.45
2022-12-18T12:44:23.379Z,17.50
2022-12-18T12:46:54.323Z,15.52
2022-12-18T12:49:28.625Z,16.80
2022-12-18T12:52:25.973Z,16.70
2022-12-18T12:54:53.486Z,14.63
2022-12-18T12:57:38.096Z,14.85
2022-12-18T13:00:18.758Z,18.63
2022-12-18T13:03:37.487Z,16.65
2022-12-18T13:06:36.947Z,17.20
2022-12-18T13:09:06.215Z,16.52
2022-12-18T13:11:59.530Z,16.90
2022-12-18T13:14:41.084Z,17.00
2022-12-18T13:17:23.131Z,16.10
2022-12-18T13:19:52.803Z,13.52
2022-12-18T13:22:39.458Z,19.42
2022-12-18T13:25:31.761Z,16.55
2022-12-18T13:28:09.600Z,16.58
2022-12-18T13:30:36.544Z,16.05
2022-12-18T13:33:15.911Z,41.72
2022-12-18T13:35:49.048Z,30.48
2022-12-18T13:38:38.198Z,28.05
2022-12-18T13:41:26.547Z,22.30
2022-12-18T13:44:10.953Z,20.77
2022-12-18T13:46:51.711Z,24.60
2022-12-18T13:49:24.883Z,19.65
2022-12-18T13:51:57.241Z,26.23
2022-12-18T13:54:43.859Z,30.45
2022-12-18T13:57:32.954Z,21.23
2022-12-18T14:00:19.797Z,25.50
2022-12-18T14:02:47.384Z,25.92
2022-12-18T14:05:38.652Z,19.15
2022-12-18T14:08:13.636Z,18.23
2022-12-18T14:10:50.064Z,21.52
2022-12-18T14:13:30.473Z,18.85
2022-12-18T14:16:04.068Z,18.48
2022-12-18T14:19:02.472Z,18.25
2022-12-18T14:21:36.106Z,18.10
2022-12-18T14:24:20.454Z,20.38
2022-12-18T14:26:50.325Z,30.73
2022-12-18T14:29:32.089Z,30.73
2022-12-18T14:32:25.333Z,22.98
2022-12-18T14:37:28.603Z,20.50
2022-12-18T14:52:59.460Z,30.65
2022-12-18T14:55:26.996Z,29.00
2022-12-18T14:57:57.284Z,33.22
2022-12-18T15:00:26.757Z,57.20
2022-12-18T15:02:57.619Z,60.78
2022-12-18T15:05:31.440Z,38.85
2022-12-18T15:08:01.674Z,46.88
2022-12-18T15:10:34.777Z,47.78
2022-12-18T15:13:03.351Z,37.80
2022-12-18T15:15:38.967Z,30.00
2022-12-18T15:18:09.542Z,27.80
2022-12-18T15:20:59.930Z,24.83
2022-12-18T15:23:37.134Z,25.92
2022-12-18T15:26:09.986Z,33.13
2022-12-18T15:28:58.454Z,23.08
2022-12-18T15:31:37.958Z,25.58
2022-12-18T15:34:24.189Z,33.45
2022-12-18T15:36:52.321Z,27.00
2022-12-18T15:39:19.561Z,30.38
2022-12-18T15:42:05.456Z,32.35
2022-12-18T15:44:32.764Z,31.80
2022-12-18T15:46:59.997Z,31.83
2022-12-18T15:49:27.080Z,29.15
2022-12-18T15:52:02.737Z,29.75
2022-12-18T15:54:48.484Z,31.50
2022-12-18T15:57:24.194Z,45.45
2022-12-18T15:59:59.076Z,39.55
2022-12-18T16:02:28.924Z,32.50
2022-12-18T16:04:57.237Z,32.45
2022-12-18T16:07:25.116Z,33.10
2022-12-18T16:09:52.720Z,25.98
2022-12-18T16:12:26.419Z,26.52
2022-12-18T16:14:53.509Z,27.08
2022-12-18T16:17:20.585Z,28.67
2022-12-18T16:19:47.664Z,28.02
2022-12-18T16:22:34.972Z,27.77
2022-12-18T16:25:01.888Z,31.40
2022-12-18T16:27:28.848Z,36.38
2022-12-18T16:29:55.777Z,38.78
2022-12-18T16:32:23.764Z,33.95
2022-12-18T16:34:51.727Z,33.85
2022-12-18T16:37:18.660Z,31.45
2022-12-18T16:39:45.920Z,29.95
2022-12-18T16:42:20.555Z,62.42
2022-12-18T16:44:50.191Z,28.65
2022-12-18T16:47:17.711Z,30.10
2022-12-18T16:49:45.983Z,32.20
2022-12-18T16:52:14.078Z,35.13
2022-12-18T16:54:41.123Z,36.55
2022-12-18T16:57:11.630Z,29.17
2022-12-18T16:59:38.602Z,30.98
2022-12-18T17:02:05.869Z,30.98
2022-12-18T17:04:33.762Z,29.73
2022-12-18T17:07:01.034Z,28.55
2022-12-18T17:09:28.378Z,29.13
2022-12-18T17:11:55.535Z,35.00
2022-12-18T17:14:24.958Z,32.10
2022-12-18T17:17:19.866Z,33.45
2022-12-18T17:19:42.321Z,31.60
2022-12-18T17:22:09.534Z,40.80
2022-12-18T17:24:36.820Z,35.67
2022-12-18T17:27:04.842Z,35.15
2022-12-18T17:29:31.933Z,44.63
2022-12-18T17:32:00.297Z,52.13
2022-12-18T17:34:28.141Z,50.60
2022-12-18T17:36:55.509Z,48.08
2022-12-18T17:39:22.827Z,46.63
2022-12-18T17:41:49.984Z,48.10
2022-12-18T17:44:18.779Z,38.28
2022-12-18T17:46:46.594Z,38.75
2022-12-18T17:49:14.698Z,37.08
2022-12-18T17:51:43.084Z,36.15
2022-12-18T17:54:11.971Z,32.53
2022-12-18T17:56:40.424Z,32.58
2022-12-18T17:59:08.730Z,32.38
2022-12-18T18:01:43.733Z,30.55
2022-12-18T18:04:14.787Z,33.08
2022-12-18T18:06:42.701Z,30.48
2022-12-18T18:09:16.507Z,31.80
2022-12-18T18:12:04.164Z,31.25
2022-12-18T18:14:31.874Z,34.20
2022-12-18T18:17:04.718Z,30.52
2022-12-18T18:19:33.490Z,31.70
2022-12-18T18:22:03.698Z,29.92
2022-12-18T18:24:31.177Z,33.92
2022-12-18T18:27:00.066Z,32.90
2022-12-18T18:29:30.382Z,35.33
2022-12-18T18:44:25.645Z,55.35
2022-12-18T18:46:58.227Z,58.33
2022-12-18T18:49:27.973Z,40.88
2022-12-18T18:51:57.388Z,39.83
2022-12-18T18:54:25.867Z,43.42
2022-12-18T18:59:40.411Z,32.20
2022-12-18T19:02:12.628Z,36.60
2022-12-18T19:04:46.375Z,33.58
2022-12-18T19:07:22.532Z,33.78
2022-12-18T19:09:57.179Z,38.55
2022-12-18T19:12:44.979Z,37.75
2022-12-18T19:15:12.125Z,37.08
2022-12-18T19:17:40.757Z,35.10
2022-12-18T19:20:09.264Z,33.88
2022-12-18T19:22:39.453Z,33.85
2022-12-18T19:25:07.315Z,31.85
2022-12-18T19:27:38.752Z,34.22
2022-12-18T19:30:06.415Z,32.17
2022-12-18T19:32:34.647Z,35.00
2022-12-18T19:35:02.661Z,34.15
2022-12-18T19:37:29.665Z,38.83
2022-12-18T19:39:56.705Z,35.50
2022-12-18T19:42:29.425Z,35.97
2022-12-18T19:45:00.617Z,35.92
2022-12-18T19:47:27.568Z,38.25
2022-12-18T19:49:54.548Z,36.30
2022-12-18T19:52:21.470Z,34.25
2022-12-18T19:54:51.407Z,35.75
2022-12-18T19:57:18.655Z,37.25
2022-12-18T19:59:45.882Z,35.13
2022-12-18T20:02:15.317Z,32.80
2022-12-18T20:04:42.401Z,32.63
2022-12-18T20:07:09.352Z,33.10
2022-12-18T20:09:37.003Z,33.78
2022-12-18T20:12:05.270Z,34.17
2022-12-18T20:14:32.309Z,34.55
2022-12-18T20:17:00.396Z,37.47
2022-12-18T20:19:27.787Z,35.70
2022-12-18T20:21:55.655Z,36.03
2022-12-18T20:24:22.707Z,32.42
2022-12-18T20:26:49.720Z,33.70
2022-12-18T20:29:16.631Z,36.17
2022-12-18T20:31:43.613Z,33.97
2022-12-18T20:34:10.745Z,32.00
2022-12-18T20:36:38.827Z,33.28
2022-12-18T20:39:09.879Z,33.33
2022-12-18T20:41:39.093Z,34.70
2022-12-18T20:44:23.193Z,33.03
2022-12-18T20:46:57.512Z,32.55
2022-12-18T20:49:26.672Z,33.92
2022-12-18T21:04:54.324Z,40.20
2022-12-18T21:07:21.359Z,38.67
2022-12-18T21:09:48.310Z,36.50
2022-12-18T21:12:36.455Z,37.60
2022-12-18T21:15:11.190Z,36.50
2022-12-18T21:17:44.118Z,34.67
2022-12-18T21:20:17.479Z,36.58
2022-12-18T21:22:45.868Z,36.72
2022-12-18T21:25:12.769Z,35.83
2022-12-18T21:27:39.680Z,36.25
2022-12-18T21:30:08.003Z,37.83
2022-12-18T21:32:35.308Z,36.30
2022-12-18T21:35:02.296Z,36.60
2022-12-18T21:37:29.428Z,35.83
2022-12-18T21:39:56.392Z,35.78
2022-12-18T21:42:41.857Z,34.67
2022-12-18T21:45:09.239Z,34.10
2022-12-18T21:47:36.135Z,36.25
2022-12-18T21:50:03.313Z,33.72
2022-12-18T21:52:32.121Z,33.63
2022-12-18T21:55:08.918Z,34.05
2022-12-18T21:57:39.320Z,35.58
2022-12-18T22:00:10.699Z,33.42
2022-12-18T22:02:43.913Z,31.90
2022-12-18T22:05:13.055Z,33.10
2022-12-18T22:07:40.647Z,32.33
2022-12-18T22:10:08.397Z,30.52
2022-12-18T22:12:35.794Z,53.65
2022-12-18T22:15:11.987Z,45.53
2022-12-18T22:17:41.314Z,33.10
2022-12-18T22:20:09.877Z,45.70
2022-12-18T22:22:36.917Z,37.80
2022-12-18T22:25:04.188Z,35.80
2022-12-18T22:27:31.092Z,36.13
2022-12-18T22:30:03.904Z,35.83
2022-12-18T22:32:35.575Z,33.83
2022-12-18T22:35:10.368Z,26.40
2022-12-18T22:37:41.136Z,38.42
2022-12-18T22:40:24.582Z,33.22
2022-12-18T22:42:56.258Z,34.28
2022-12-18T22:45:24.923Z,33.85
2022-12-18T22:47:52.005Z,32.95
2022-12-18T22:50:19.011Z,36.65
2022-12-18T22:52:46.078Z,34.08
2022-12-18T22:55:13.009Z,31.63
2022-12-18T22:57:40.650Z,32.63
2022-12-18T23:00:12.218Z,31.65
2022-12-18T23:02:39.334Z,31.90
2022-12-18T23:05:06.709Z,30.00
2022-12-18T23:07:33.629Z,31.00
2022-12-18T23:10:01.177Z,30.42
2022-12-18T23:12:28.393Z,30.85
2022-12-18T23:14:55.383Z,31.23
2022-12-18T23:17:22.377Z,28.70
2022-12-18T23:19:49.600Z,30.58
2022-12-18T23:22:17.554Z,31.88
2022-12-18T23:24:44.519Z,30.65
2022-12-18T23:27:12.162Z,29.73
2022-12-18T23:29:40.378Z,30.27
2022-12-18T23:32:07.987Z,29.95
2022-12-18T23:34:34.919Z,32.60
2022-12-18T23:37:03.709Z,29.75
2022-12-18T23:39:30.838Z,30.83
2022-12-18T23:41:59.144Z,31.85
2022-12-18T23:44:27.068Z,31.20
2022-12-18T23:46:54.047Z,28.38
2022-12-18T23:49:21.078Z,30.42
2022-12-18T23:51:48.362Z,29.85
2022-12-18T23:54:15.308Z,29.27
2022-12-18T23:56:42.529Z,29.50
2022-12-18T23:59:09.723Z,29.67
